createdAt,value
2019-01-16T00:01:38.631Z,5.53
2019-01-16T00:04:05.108Z,5.43
2019-01-16T00:06:33.499Z,4.53
2019-01-16T00:09:01.859Z,5.03
2019-01-16T00:11:30.239Z,4.77
2019-01-16T00:13:56.645Z,5.53
2019-01-16T00:16:25.051Z,5.60
2019-01-16T00:18:53.531Z,5.03
2019-01-16T00:21:21.947Z,4.87
2019-01-16T00:23:48.411Z,5.47
2019-01-16T00:26:16.805Z,5.43
2019-01-16T00:28:45.067Z,5.63
2019-01-16T00:31:13.463Z,5.13
2019-01-16T00:33:41.728Z,6.53
2019-01-16T00:36:10.116Z,5.23
2019-01-16T00:38:38.484Z,5.57
2019-01-16T00:41:06.890Z,5.30
2019-01-16T00:43:35.242Z,4.77
2019-01-16T00:46:03.639Z,6.17
2019-01-16T00:48:32.020Z,5.43
2019-01-16T00:51:00.385Z,4.97
2019-01-16T00:53:28.785Z,5.43
2019-01-16T00:55:57.052Z,4.47
2019-01-16T00:58:25.435Z,4.97
2019-01-16T01:00:54.032Z,4.80
2019-01-16T01:03:22.420Z,4.87
2019-01-16T01:05:50.769Z,5.70
2019-01-16T01:08:19.160Z,5.10
2019-01-16T01:10:47.530Z,5.60
2019-01-16T01:13:17.160Z,5.33
2019-01-16T01:15:45.509Z,5.10
2019-01-16T01:18:13.885Z,5.20
2019-01-16T01:20:42.281Z,5.13
2019-01-16T01:23:10.684Z,5.17
2019-01-16T01:25:38.162Z,5.27
2019-01-16T01:28:06.550Z,4.97
2019-01-16T01:30:34.818Z,4.93
2019-01-16T01:33:03.226Z,5.27
2019-01-16T01:35:31.576Z,5.00
2019-01-16T01:37:59.930Z,4.60
2019-01-16T01:40:28.342Z,4.70
2019-01-16T01:42:56.715Z,5.87
2019-01-16T01:45:25.118Z,5.17
2019-01-16T01:47:53.472Z,4.43
2019-01-16T01:50:21.874Z,4.63
2019-01-16T01:52:50.223Z,4.63
2019-01-16T01:55:18.517Z,4.23
2019-01-16T01:57:46.869Z,4.40
2019-01-16T02:00:15.274Z,4.67
2019-01-16T02:02:43.641Z,5.10
2019-01-16T02:05:12.040Z,4.60
2019-01-16T02:07:46.222Z,4.63
2019-01-16T02:10:14.655Z,4.77
2019-01-16T02:12:43.024Z,4.43
2019-01-16T02:15:12.125Z,5.50
2019-01-16T02:17:40.483Z,4.97
2019-01-16T02:20:11.220Z,4.47
2019-01-16T02:22:39.614Z,5.37
2019-01-16T02:25:08.000Z,4.80
2019-01-16T02:27:36.367Z,5.03
2019-01-16T02:30:06.572Z,5.30
2019-01-16T02:32:34.923Z,5.03
2019-01-16T02:35:03.346Z,4.93
2019-01-16T02:37:30.814Z,4.93
2019-01-16T02:39:59.197Z,4.30
2019-01-16T02:42:27.460Z,4.30
2019-01-16T02:44:55.847Z,4.90
2019-01-16T02:47:39.041Z,4.50
2019-01-16T02:50:06.253Z,4.57
2019-01-16T02:52:34.607Z,4.77
2019-01-16T02:55:03.000Z,4.03
2019-01-16T02:57:31.357Z,4.80
2019-01-16T02:59:59.636Z,4.43
2019-01-16T03:02:27.937Z,5.00
2019-01-16T03:04:56.291Z,4.70
2019-01-16T03:07:24.691Z,4.40
2019-01-16T03:09:53.040Z,4.50
2019-01-16T03:12:21.442Z,4.40
2019-01-16T03:14:49.793Z,4.87
2019-01-16T03:17:23.990Z,4.47
2019-01-16T03:19:51.455Z,4.50
2019-01-16T03:22:19.753Z,4.13
2019-01-16T03:24:48.110Z,4.50
2019-01-16T03:27:28.443Z,4.70
2019-01-16T03:29:55.910Z,4.60
2019-01-16T03:32:24.302Z,3.93
2019-01-16T03:34:52.659Z,4.17
2019-01-16T03:37:21.048Z,4.33
2019-01-16T03:39:49.417Z,4.20
2019-01-16T03:42:15.906Z,4.13
2019-01-16T03:44:44.276Z,3.87
2019-01-16T03:47:12.659Z,4.37
2019-01-16T03:49:41.019Z,4.70
2019-01-16T03:52:09.432Z,4.70
2019-01-16T03:54:37.785Z,3.80
2019-01-16T03:57:06.175Z,4.43
2019-01-16T03:59:34.542Z,3.80
2019-01-16T04:02:05.730Z,4.17
2019-01-16T04:04:33.998Z,4.60
2019-01-16T04:07:02.394Z,4.43
2019-01-16T04:09:30.743Z,4.00
2019-01-16T04:12:10.758Z,4.13
2019-01-16T04:14:39.690Z,4.20
2019-01-16T04:17:08.150Z,4.10
2019-01-16T04:19:34.621Z,4.30
2019-01-16T04:22:03.029Z,4.27
2019-01-16T04:24:31.342Z,4.30
2019-01-16T04:26:59.598Z,4.17
2019-01-16T04:29:27.993Z,4.57
2019-01-16T04:31:56.342Z,4.37
2019-01-16T04:34:24.633Z,4.30
2019-01-16T04:36:53.538Z,4.20
2019-01-16T04:39:21.915Z,4.40
2019-01-16T04:41:50.270Z,4.63
2019-01-16T04:44:18.611Z,5.33
2019-01-16T04:46:46.978Z,4.47
2019-01-16T04:49:15.396Z,4.30
2019-01-16T04:51:43.749Z,4.23
2019-01-16T04:54:12.151Z,4.50
2019-01-16T04:56:40.510Z,4.47
2019-01-16T04:59:08.905Z,4.80
2019-01-16T05:01:37.262Z,4.70
2019-01-16T05:04:05.685Z,5.03
2019-01-16T05:06:34.044Z,4.70
2019-01-16T05:09:02.465Z,4.70
2019-01-16T05:11:30.822Z,4.50
2019-01-16T05:13:59.235Z,4.40
2019-01-16T05:16:27.495Z,4.77
2019-01-16T05:18:55.753Z,4.57
2019-01-16T05:21:24.190Z,4.63
2019-01-16T05:23:52.459Z,5.10
2019-01-16T05:26:20.860Z,4.67
2019-01-16T05:28:49.205Z,5.00
2019-01-16T05:31:15.689Z,5.00
2019-01-16T05:33:44.048Z,5.70
2019-01-16T05:36:12.431Z,7.33
2019-01-16T05:38:40.781Z,7.23
2019-01-16T05:41:10.110Z,6.63
2019-01-16T05:43:38.489Z,6.03
2019-01-16T05:46:06.869Z,5.73
2019-01-16T05:48:35.469Z,4.87
2019-01-16T05:51:03.860Z,5.30
2019-01-16T05:53:32.471Z,5.37
2019-01-16T05:56:00.876Z,4.33
2019-01-16T05:58:29.240Z,4.93
2019-01-16T06:00:57.624Z,4.13
2019-01-16T06:03:25.970Z,4.30
2019-01-16T06:05:54.324Z,4.13
2019-01-16T06:08:22.710Z,4.97
2019-01-16T06:10:51.064Z,4.17
2019-01-16T06:13:19.455Z,4.20
2019-01-16T06:15:47.821Z,3.97
2019-01-16T06:18:16.193Z,4.30
2019-01-16T06:20:44.608Z,3.77
2019-01-16T06:23:13.008Z,3.90
2019-01-16T06:25:41.389Z,4.87
2019-01-16T06:28:09.784Z,4.17
2019-01-16T06:30:38.139Z,3.67
2019-01-16T06:33:06.533Z,4.20
2019-01-16T06:35:34.897Z,4.90
2019-01-16T06:38:03.542Z,4.27
2019-01-16T06:40:31.918Z,4.30
2019-01-16T06:43:00.331Z,4.30
2019-01-16T06:45:28.686Z,4.50
2019-01-16T06:48:02.946Z,4.50
2019-01-16T06:50:31.293Z,4.60
2019-01-16T06:52:59.549Z,5.53
2019-01-16T06:55:27.946Z,5.60
2019-01-16T06:57:56.298Z,5.53
2019-01-16T07:00:23.868Z,5.03
2019-01-16T07:02:52.220Z,4.20
2019-01-16T07:05:20.611Z,4.77
2019-01-16T07:07:48.952Z,4.73
2019-01-16T07:10:17.341Z,4.43
2019-01-16T07:12:45.692Z,4.63
2019-01-16T07:15:14.088Z,4.53
2019-01-16T07:17:42.452Z,5.10
2019-01-16T07:20:11.118Z,5.50
2019-01-16T07:22:39.467Z,5.50
2019-01-16T07:25:07.849Z,5.90
2019-01-16T07:27:36.205Z,5.53
2019-01-16T07:30:06.409Z,5.50
2019-01-16T07:32:34.755Z,5.93
2019-01-16T07:35:03.137Z,5.07
2019-01-16T07:37:31.496Z,5.23
2019-01-16T07:39:59.853Z,5.70
2019-01-16T07:42:28.849Z,6.43
2019-01-16T07:44:57.213Z,6.67
2019-01-16T07:47:25.594Z,6.40
2019-01-16T07:49:54.011Z,5.57
2019-01-16T07:52:22.400Z,6.17
2019-01-16T07:54:50.762Z,6.00
2019-01-16T07:57:19.160Z,6.07
2019-01-16T07:59:50.325Z,5.77
2019-01-16T08:02:18.971Z,5.83
2019-01-16T08:04:47.341Z,5.80
2019-01-16T08:07:15.707Z,5.80
2019-01-16T08:09:44.063Z,5.50
2019-01-16T08:12:12.454Z,4.83
2019-01-16T08:14:40.819Z,5.50
2019-01-16T08:17:09.199Z,5.23
2019-01-16T08:19:37.565Z,4.83
2019-01-16T08:22:05.985Z,5.73
2019-01-16T08:24:34.579Z,4.77
2019-01-16T08:27:02.999Z,5.03
2019-01-16T08:29:31.344Z,5.13
2019-01-16T08:32:02.570Z,5.73
2019-01-16T08:34:30.930Z,5.40
2019-01-16T08:36:59.319Z,5.27
2019-01-16T08:39:27.670Z,4.43
2019-01-16T08:41:56.071Z,4.20
2019-01-16T08:44:24.434Z,3.90
2019-01-16T08:46:52.785Z,4.97
2019-01-16T08:49:21.168Z,4.60
2019-01-16T08:51:49.530Z,5.30
2019-01-16T08:54:17.917Z,4.67
2019-01-16T08:56:46.278Z,4.60
2019-01-16T08:59:14.679Z,4.07
2019-01-16T09:01:43.042Z,4.47
2019-01-16T09:04:11.443Z,3.77
2019-01-16T09:06:39.706Z,4.17
2019-01-16T09:09:08.899Z,4.40
2019-01-16T09:11:37.264Z,3.90
2019-01-16T09:14:05.763Z,4.20
2019-01-16T09:16:34.152Z,3.87
2019-01-16T09:19:02.528Z,3.63
2019-01-16T09:21:33.685Z,3.63
2019-01-16T09:24:02.074Z,3.97
2019-01-16T09:26:30.437Z,3.70
2019-01-16T09:28:58.845Z,3.37
2019-01-16T09:31:25.307Z,3.97
2019-01-16T09:33:53.701Z,3.33
2019-01-16T09:36:22.066Z,3.40
2019-01-16T09:38:50.449Z,3.33
2019-01-16T09:41:18.706Z,3.60
2019-01-16T09:43:45.180Z,3.30
2019-01-16T09:46:13.536Z,3.90
2019-01-16T09:48:41.938Z,3.00
2019-01-16T09:51:10.299Z,3.80
2019-01-16T09:53:38.658Z,3.33
2019-01-16T09:56:07.051Z,3.77
2019-01-16T09:58:35.421Z,3.53
2019-01-16T10:01:04.022Z,3.50
2019-01-16T10:03:32.387Z,3.40
2019-01-16T10:06:00.769Z,3.73
2019-01-16T10:08:29.039Z,3.40
2019-01-16T10:10:57.402Z,3.60
2019-01-16T10:13:25.749Z,3.87
2019-01-16T10:15:53.250Z,3.10
2019-01-16T10:18:21.628Z,3.33
2019-01-16T10:20:55.622Z,3.90
2019-01-16T10:23:20.193Z,3.20
2019-01-16T10:25:48.565Z,3.63
2019-01-16T10:28:16.920Z,3.87
2019-01-16T10:30:45.449Z,3.57
2019-01-16T10:33:16.576Z,3.97
2019-01-16T10:35:44.963Z,4.00
2019-01-16T10:38:13.330Z,3.80
2019-01-16T10:40:41.781Z,3.13
2019-01-16T10:43:10.165Z,3.27
2019-01-16T10:45:38.557Z,3.67
2019-01-16T10:48:06.921Z,3.97
2019-01-16T10:50:35.281Z,3.50
2019-01-16T10:53:03.762Z,4.07
2019-01-16T10:55:32.129Z,3.60
2019-01-16T10:58:00.515Z,4.17
2019-01-16T11:00:28.884Z,3.53
2019-01-16T11:02:57.289Z,4.17
2019-01-16T11:05:25.662Z,4.37
2019-01-16T11:07:54.053Z,3.97
2019-01-16T11:10:22.419Z,3.97
2019-01-16T11:12:50.816Z,4.17
2019-01-16T11:15:19.583Z,3.63
2019-01-16T11:17:47.870Z,4.40
2019-01-16T11:20:16.261Z,4.40
2019-01-16T11:22:44.663Z,4.40
2019-01-16T11:25:13.029Z,4.70
2019-01-16T11:27:41.348Z,4.53
2019-01-16T11:30:10.261Z,4.83
2019-01-16T11:32:38.628Z,4.30
2019-01-16T11:35:07.485Z,4.93
2019-01-16T11:37:35.903Z,4.33
2019-01-16T11:40:06.052Z,4.30
2019-01-16T11:42:34.315Z,4.50
2019-01-16T11:45:02.948Z,4.53
2019-01-16T11:47:31.316Z,4.63
2019-01-16T11:50:02.583Z,3.90
2019-01-16T11:52:31.011Z,4.43
2019-01-16T11:54:59.458Z,4.03
2019-01-16T11:57:27.825Z,4.20
2019-01-16T11:59:56.215Z,3.90
2019-01-16T12:02:24.577Z,3.80
2019-01-16T12:04:52.856Z,4.23
2019-01-16T12:07:21.216Z,4.33
2019-01-16T12:09:49.653Z,4.27
2019-01-16T12:12:17.982Z,4.00
2019-01-16T12:14:46.385Z,4.67
2019-01-16T12:17:14.667Z,5.00
2019-01-16T12:19:42.272Z,4.13
2019-01-16T12:22:08.777Z,4.40
2019-01-16T12:24:37.185Z,4.33
2019-01-16T12:27:05.542Z,4.73
2019-01-16T12:29:33.893Z,4.50
2019-01-16T12:32:02.202Z,3.77
2019-01-16T12:34:30.543Z,4.73
2019-01-16T12:37:01.843Z,4.53
2019-01-16T12:39:30.249Z,4.33
2019-01-16T12:41:59.730Z,4.67
2019-01-16T12:44:28.367Z,4.20
2019-01-16T12:46:56.780Z,4.67
2019-01-16T12:49:44.983Z,4.00
2019-01-16T12:52:13.442Z,4.53
2019-01-16T12:54:41.795Z,4.33
2019-01-16T12:57:10.081Z,4.53
2019-01-16T12:59:38.469Z,4.40
2019-01-16T13:02:07.644Z,4.72
2019-01-16T13:04:36.068Z,4.42
2019-01-16T13:07:10.267Z,4.95
2019-01-16T13:09:38.636Z,4.28
2019-01-16T13:12:07.036Z,5.17
2019-01-16T13:14:35.393Z,5.65
2019-01-16T13:17:03.697Z,5.22
2019-01-16T13:19:32.060Z,4.65
2019-01-16T13:22:00.515Z,5.00
2019-01-16T13:24:28.880Z,5.58
2019-01-16T13:27:06.069Z,5.70
2019-01-16T13:29:37.604Z,6.10
2019-01-16T13:32:04.929Z,5.92
2019-01-16T13:34:33.398Z,5.85
2019-01-16T13:37:00.074Z,6.35
2019-01-16T13:39:28.610Z,6.20
2019-01-16T13:41:57.107Z,5.47
2019-01-16T13:44:25.521Z,6.87
2019-01-16T13:46:54.003Z,6.50
2019-01-16T13:49:22.366Z,7.47
2019-01-16T13:51:50.760Z,7.60
2019-01-16T13:54:19.219Z,7.37
2019-01-16T13:56:46.916Z,7.50
2019-01-16T13:59:15.271Z,7.67
2019-01-16T14:01:43.631Z,7.07
2019-01-16T14:04:11.951Z,7.90
2019-01-16T14:06:40.327Z,7.73
2019-01-16T14:09:10.208Z,8.00
2019-01-16T14:11:54.977Z,8.07
2019-01-16T14:14:23.267Z,8.23
2019-01-16T14:16:51.616Z,7.33
2019-01-16T14:19:19.983Z,7.87
2019-01-16T14:21:53.004Z,7.83
2019-01-16T14:24:18.666Z,7.83
2019-01-16T14:26:47.031Z,7.90
2019-01-16T14:29:15.487Z,8.30
2019-01-16T14:31:43.839Z,8.73
2019-01-16T14:34:12.240Z,7.20
2019-01-16T14:36:40.598Z,8.03
2019-01-16T14:39:09.102Z,8.53
2019-01-16T14:41:37.480Z,8.27
2019-01-16T14:44:05.889Z,9.00
2019-01-16T14:46:37.045Z,8.93
2019-01-16T14:49:05.419Z,9.13
2019-01-16T14:51:33.881Z,9.20
2019-01-16T14:54:02.222Z,8.53
2019-01-16T14:56:30.589Z,8.73
2019-01-16T14:58:58.980Z,9.43
2019-01-16T15:01:27.372Z,9.70
2019-01-16T15:04:02.087Z,8.83
2019-01-16T15:06:33.224Z,9.33
2019-01-16T15:09:01.619Z,9.00
2019-01-16T15:11:29.978Z,9.37
2019-01-16T15:13:58.363Z,9.73
2019-01-16T15:16:26.707Z,9.50
2019-01-16T15:18:55.087Z,9.30
2019-01-16T15:21:23.428Z,9.13
2019-01-16T15:23:51.804Z,9.90
2019-01-16T15:26:20.208Z,8.90
2019-01-16T15:28:48.583Z,8.73
2019-01-16T15:31:17.003Z,9.63
2019-01-16T15:33:45.345Z,10.87
2019-01-16T15:36:13.730Z,8.97
2019-01-16T15:38:42.095Z,10.77
2019-01-16T15:41:10.491Z,9.60
2019-01-16T15:43:38.935Z,8.73
2019-01-16T15:46:07.390Z,9.77
2019-01-16T15:48:35.750Z,10.27
2019-01-16T15:51:04.158Z,10.53
2019-01-16T15:53:32.515Z,10.30
2019-01-16T15:56:00.829Z,9.60
2019-01-16T15:58:29.263Z,10.93
2019-01-16T16:00:57.708Z,10.23
2019-01-16T16:03:26.058Z,10.13
2019-01-16T16:05:54.444Z,9.83
2019-01-16T16:08:22.808Z,11.27
2019-01-16T16:10:51.174Z,10.90
2019-01-16T16:13:17.659Z,11.47
2019-01-16T16:15:46.021Z,11.77
2019-01-16T16:18:14.428Z,11.50
2019-01-16T16:20:42.731Z,11.60
2019-01-16T16:23:11.123Z,11.80
2019-01-16T16:25:39.476Z,11.10
2019-01-16T16:28:07.882Z,11.57
2019-01-16T16:30:36.253Z,12.10
2019-01-16T16:33:04.671Z,13.80
2019-01-16T16:35:32.967Z,14.83
2019-01-16T16:38:01.250Z,13.07
2019-01-16T16:40:29.601Z,11.93
2019-01-16T16:42:58.019Z,11.37
2019-01-16T16:45:26.367Z,11.90
2019-01-16T16:47:54.765Z,12.37
2019-01-16T16:50:23.112Z,11.50
2019-01-16T16:52:51.533Z,10.63
2019-01-16T16:55:19.894Z,10.73
2019-01-16T16:57:46.419Z,11.63
2019-01-16T17:00:14.908Z,10.70
2019-01-16T17:02:43.322Z,9.60
2019-01-16T17:05:11.758Z,9.77
2019-01-16T17:07:40.153Z,11.70
2019-01-16T17:10:10.296Z,10.30
2019-01-16T17:12:38.559Z,10.70
2019-01-16T17:15:08.779Z,10.77
2019-01-16T17:17:42.957Z,10.27
2019-01-16T17:20:11.479Z,11.23
2019-01-16T17:22:39.828Z,10.77
2019-01-16T17:25:09.259Z,10.83
2019-01-16T17:27:37.607Z,10.73
2019-01-16T17:30:07.812Z,11.70
2019-01-16T17:32:36.169Z,11.70
2019-01-16T17:35:05.290Z,10.43
2019-01-16T17:37:32.866Z,10.90
2019-01-16T17:40:01.262Z,11.33
2019-01-16T17:42:29.623Z,10.37
2019-01-16T17:44:58.024Z,10.67
2019-01-16T17:47:26.286Z,10.90
2019-01-16T17:49:54.568Z,10.77
2019-01-16T17:52:22.907Z,11.10
2019-01-16T17:54:51.338Z,10.73
2019-01-16T17:57:19.695Z,11.33
2019-01-16T17:59:47.979Z,11.23
2019-01-16T18:02:16.329Z,10.83
2019-01-16T18:04:44.716Z,11.63
2019-01-16T18:07:12.973Z,10.83
2019-01-16T18:09:41.402Z,10.13
2019-01-16T18:12:09.752Z,12.00
2019-01-16T18:14:38.143Z,9.83
2019-01-16T18:17:04.601Z,11.37
2019-01-16T18:19:33.182Z,10.87
2019-01-16T18:22:00.730Z,10.90
2019-01-16T18:24:29.077Z,10.97
2019-01-16T18:26:57.477Z,10.63
2019-01-16T18:29:25.738Z,12.70
2019-01-16T18:31:52.220Z,12.40
2019-01-16T18:34:20.571Z,12.23
2019-01-16T18:36:48.998Z,13.00
2019-01-16T18:39:17.274Z,12.33
2019-01-16T18:41:45.662Z,11.67
2019-01-16T18:44:14.026Z,12.87
2019-01-16T18:46:42.435Z,11.00
2019-01-16T18:49:16.639Z,13.40
2019-01-16T18:51:45.039Z,13.30
2019-01-16T18:54:13.416Z,13.03
2019-01-16T18:56:41.830Z,12.77
2019-01-16T18:59:10.185Z,13.57
2019-01-16T19:01:38.545Z,12.47
2019-01-16T19:04:06.942Z,12.80
2019-01-16T19:06:35.296Z,11.77
2019-01-16T19:09:04.209Z,12.43
2019-01-16T19:11:32.594Z,13.40
2019-01-16T19:13:59.216Z,13.30
2019-01-16T19:16:27.607Z,12.83
2019-01-16T19:18:56.007Z,11.90
2019-01-16T19:21:24.423Z,12.30
2019-01-16T19:23:52.852Z,11.73
2019-01-16T19:26:21.217Z,12.27
2019-01-16T19:28:49.510Z,12.53
2019-01-16T19:31:17.903Z,12.33
2019-01-16T19:33:46.181Z,13.57
2019-01-16T19:36:14.527Z,12.37
2019-01-16T19:38:43.012Z,12.70
2019-01-16T19:41:11.486Z,12.70
2019-01-16T19:43:39.963Z,13.23
2019-01-16T19:46:08.236Z,12.47
2019-01-16T19:48:36.631Z,12.47
2019-01-16T19:51:03.091Z,13.20
2019-01-16T19:53:31.518Z,13.10
2019-01-16T19:55:59.923Z,13.10
2019-01-16T19:58:28.444Z,13.13
2019-01-16T20:00:56.800Z,14.97
2019-01-16T20:03:25.211Z,13.63
2019-01-16T20:05:53.612Z,14.50
2019-01-16T20:08:20.087Z,14.30
2019-01-16T20:10:48.481Z,13.60
2019-01-16T20:13:16.866Z,14.40
2019-01-16T20:15:45.264Z,13.67
2019-01-16T20:18:13.637Z,13.37
2019-01-16T20:20:44.864Z,14.13
2019-01-16T20:23:13.239Z,12.97
2019-01-16T20:25:41.643Z,13.43
2019-01-16T20:28:10.020Z,14.00
2019-01-16T20:30:38.424Z,14.27
2019-01-16T20:33:06.791Z,16.30
2019-01-16T20:35:35.234Z,14.00
2019-01-16T20:38:03.607Z,15.73
2019-01-16T20:40:32.019Z,16.37
2019-01-16T20:43:00.390Z,13.60
2019-01-16T20:45:28.789Z,14.40
2019-01-16T20:47:57.165Z,13.63
2019-01-16T20:50:25.543Z,13.93
2019-01-16T20:52:53.918Z,14.20
2019-01-16T20:55:22.341Z,14.77
2019-01-16T20:57:49.803Z,13.17
2019-01-16T21:00:16.396Z,12.53
2019-01-16T21:02:44.751Z,13.47
2019-01-16T21:05:13.175Z,13.07
2019-01-16T21:07:41.636Z,13.63
2019-01-16T21:10:11.671Z,14.23
2019-01-16T21:12:40.025Z,14.83
2019-01-16T21:15:09.820Z,13.40
2019-01-16T21:17:38.350Z,13.10
2019-01-16T21:20:08.635Z,12.37
2019-01-16T21:22:42.546Z,15.37
2019-01-16T21:25:08.297Z,15.67
2019-01-16T21:27:36.716Z,16.53
2019-01-16T21:30:06.891Z,15.23
2019-01-16T21:32:35.330Z,16.00
2019-01-16T21:35:04.360Z,15.87
2019-01-16T21:37:32.705Z,17.40
2019-01-16T21:40:01.077Z,19.47
2019-01-16T21:42:29.506Z,18.13
2019-01-16T21:44:57.977Z,17.73
2019-01-16T21:47:24.472Z,17.57
2019-01-16T21:49:52.851Z,16.60
2019-01-16T21:52:21.237Z,14.57
2019-01-16T21:54:49.649Z,13.37
2019-01-16T21:57:18.052Z,12.47
2019-01-16T21:59:46.306Z,14.40
2019-01-16T22:02:14.708Z,13.00
2019-01-16T22:04:42.967Z,13.00
2019-01-16T22:07:11.373Z,15.27
2019-01-16T22:09:39.733Z,16.47
2019-01-16T22:12:08.232Z,16.50
2019-01-16T22:14:36.581Z,16.33
2019-01-16T22:17:05.070Z,16.07
2019-01-16T22:19:33.430Z,15.97
2019-01-16T22:22:01.771Z,17.70
2019-01-16T22:24:30.295Z,19.80
2019-01-16T22:26:58.751Z,15.83
2019-01-16T22:29:27.124Z,16.07
2019-01-16T22:31:55.511Z,15.73
2019-01-16T22:34:23.885Z,15.67
2019-01-16T22:36:52.251Z,15.43
2019-01-16T22:39:20.667Z,15.53
2019-01-16T22:41:49.063Z,15.57
2019-01-16T22:44:17.479Z,15.60
2019-01-16T22:46:45.856Z,14.93
2019-01-16T22:49:14.253Z,16.87
2019-01-16T22:51:42.595Z,16.47
2019-01-16T22:54:11.006Z,16.03
2019-01-16T22:56:39.264Z,17.10
2019-01-16T22:59:07.678Z,16.70
2019-01-16T23:01:36.032Z,16.00
2019-01-16T23:04:04.340Z,16.33
2019-01-16T23:06:32.702Z,15.63
2019-01-16T23:09:01.101Z,16.80
2019-01-16T23:11:29.354Z,16.37
2019-01-16T23:13:57.760Z,15.60
2019-01-16T23:16:26.115Z,17.43
2019-01-16T23:18:54.405Z,16.87
2019-01-16T23:21:22.805Z,15.90
2019-01-16T23:23:51.203Z,16.57
2019-01-16T23:26:19.463Z,16.23
2019-01-16T23:28:47.868Z,15.97
2019-01-16T23:31:16.219Z,16.13
2019-01-16T23:33:44.626Z,15.67
2019-01-16T23:36:12.990Z,14.87
2019-01-16T23:38:41.384Z,14.00
2019-01-16T23:41:07.848Z,13.83
2019-01-16T23:43:36.243Z,14.50
2019-01-16T23:46:04.839Z,13.70
2019-01-16T23:48:33.245Z,14.47
2019-01-16T23:51:01.593Z,14.23
2019-01-16T23:53:29.854Z,14.57
2019-01-16T23:55:58.138Z,14.93
2019-01-16T23:58:26.505Z,14.63
